Cape San Blas, Florida
Current Conditions -  °F | °C
As of 7:53 PM on Saturday 25 Oct 2014 (Local Time) from KAAF Reporting Station
Clear Clear  
Wind Chill: 66°   Ceiling: Unl
Heat Index: 66°   Visibility: 10mi
Dew Point: 51°   Wind: 0mph
Humidity: 59%   Direction: NA
Pressure: 30.01"   Gusts: NA
Location:  29.8451°N, 85.2061°W
Report Text: KAAF 252353Z AUTO 00000KT 10SM CLR 19/11 A3001 RMK AO2 SLP161 T01890106 10283 20189 53007 TSNO
Loading
Personal Weather Stations






























Interactive Weather Map
Tropical Storm Tracking
New forecast layout! Learn more

10-Day Weather Forecast

Advertisements
Track Severe Weather on mobile